sensor_id;sensor_type;location;lat;lon;timestamp;P1;durP1;ratioP1;P2;durP2;ratioP2
64653;SDS011;51065;48.884;12.598;2022-09-09T00:00:32;8.95;;;3.13;;
64653;SDS011;51065;48.884;12.598;2022-09-09T00:08:26;7.47;;;3.33;;
64653;SDS011;51065;48.884;12.598;2022-09-09T00:11:11;6.82;;;3.33;;
64653;SDS011;51065;48.884;12.598;2022-09-09T00:13:48;10.90;;;3.70;;
64653;SDS011;51065;48.884;12.598;2022-09-09T00:19:00;6.82;;;3.13;;
64653;SDS011;51065;48.884;12.598;2022-09-09T00:21:38;9.65;;;3.70;;
64653;SDS011;51065;48.884;12.598;2022-09-09T00:24:54;8.27;;;3.30;;
64653;SDS011;51065;48.884;12.598;2022-09-09T00:27:01;7.18;;;3.00;;
64653;SDS011;51065;48.884;12.598;2022-09-09T00:32:13;7.22;;;3.22;;
64653;SDS011;51065;48.884;12.598;2022-09-09T00:35:24;7.85;;;3.13;;
64653;SDS011;51065;48.884;12.598;2022-09-09T00:37:52;8.35;;;3.33;;
64653;SDS011;51065;48.884;12.598;2022-09-09T00:40:23;12.10;;;3.30;;
64653;SDS011;51065;48.884;12.598;2022-09-09T00:43:16;7.65;;;3.10;;
64653;SDS011;51065;48.884;12.598;2022-09-09T00:48:59;7.53;;;3.25;;
64653;SDS011;51065;48.884;12.598;2022-09-09T00:57:29;6.55;;;3.35;;
64653;SDS011;51065;48.884;12.598;2022-09-09T01:02:29;7.15;;;3.33;;
64653;SDS011;51065;48.884;12.598;2022-09-09T01:05:10;6.50;;;3.10;;
64653;SDS011;51065;48.884;12.598;2022-09-09T01:07:44;10.30;;;3.80;;
64653;SDS011;51065;48.884;12.598;2022-09-09T01:10:26;8.10;;;3.90;;
64653;SDS011;51065;48.884;12.598;2022-09-09T01:13:02;11.68;;;3.97;;
64653;SDS011;51065;48.884;12.598;2022-09-09T01:15:36;12.10;;;4.47;;
64653;SDS011;51065;48.884;12.598;2022-09-09T01:18:07;10.80;;;4.57;;
64653;SDS011;51065;48.884;12.598;2022-09-09T01:20:53;10.52;;;4.15;;
64653;SDS011;51065;48.884;12.598;2022-09-09T01:26:39;10.55;;;3.90;;
64653;SDS011;51065;48.884;12.598;2022-09-09T01:29:08;11.60;;;4.25;;
64653;SDS011;51065;48.884;12.598;2022-09-09T01:31:38;7.10;;;3.67;;
64653;SDS011;51065;48.884;12.598;2022-09-09T01:34:09;7.95;;;3.95;;
64653;SDS011;51065;48.884;12.598;2022-09-09T01:36:43;10.32;;;4.07;;
64653;SDS011;51065;48.884;12.598;2022-09-09T01:39:17;9.93;;;3.90;;
64653;SDS011;51065;48.884;12.598;2022-09-09T01:41:43;7.18;;;3.67;;
64653;SDS011;51065;48.884;12.598;2022-09-09T01:44:08;8.20;;;3.78;;
64653;SDS011;51065;48.884;12.598;2022-09-09T01:46:35;9.45;;;3.92;;
64653;SDS011;51065;48.884;12.598;2022-09-09T01:49:02;9.25;;;4.18;;
64653;SDS011;51065;48.884;12.598;2022-09-09T01:51:30;9.75;;;3.80;;
64653;SDS011;51065;48.884;12.598;2022-09-09T01:53:56;8.40;;;3.97;;
64653;SDS011;51065;48.884;12.598;2022-09-09T02:07:48;8.07;;;3.65;;
64653;SDS011;51065;48.884;12.598;2022-09-09T02:12:40;11.02;;;4.32;;
64653;SDS011;51065;48.884;12.598;2022-09-09T02:15:14;7.75;;;3.83;;
64653;SDS011;51065;48.884;12.598;2022-09-09T02:17:47;8.43;;;3.78;;
64653;SDS011;51065;48.884;12.598;2022-09-09T02:20:16;8.80;;;3.85;;
64653;SDS011;51065;48.884;12.598;2022-09-09T02:22:44;6.55;;;3.47;;
64653;SDS011;51065;48.884;12.598;2022-09-09T02:25:14;10.17;;;4.33;;
64653;SDS011;51065;48.884;12.598;2022-09-09T02:27:45;9.30;;;4.75;;
64653;SDS011;51065;48.884;12.598;2022-09-09T02:30:12;7.75;;;4.10;;
64653;SDS011;51065;48.884;12.598;2022-09-09T02:32:38;7.70;;;3.50;;
64653;SDS011;51065;48.884;12.598;2022-09-09T02:35:07;8.32;;;3.60;;
64653;SDS011;51065;48.884;12.598;2022-09-09T02:37:37;8.25;;;3.38;;
64653;SDS011;51065;48.884;12.598;2022-09-09T02:40:07;8.35;;;3.90;;
64653;SDS011;51065;48.884;12.598;2022-09-09T02:42:54;10.45;;;4.10;;
64653;SDS011;51065;48.884;12.598;2022-09-09T02:45:22;10.20;;;3.90;;
64653;SDS011;51065;48.884;12.598;2022-09-09T02:47:51;10.52;;;3.95;;
64653;SDS011;51065;48.884;12.598;2022-09-09T02:53:01;12.93;;;4.40;;
64653;SDS011;51065;48.884;12.598;2022-09-09T02:55:38;10.82;;;4.43;;
64653;SDS011;51065;48.884;12.598;2022-09-09T02:58:08;9.77;;;4.50;;
64653;SDS011;51065;48.884;12.598;2022-09-09T03:00:37;12.07;;;4.63;;
64653;SDS011;51065;48.884;12.598;2022-09-09T03:03:07;9.70;;;4.35;;
64653;SDS011;51065;48.884;12.598;2022-09-09T03:05:34;11.98;;;4.72;;
64653;SDS011;51065;48.884;12.598;2022-09-09T03:08:00;13.63;;;5.00;;
64653;SDS011;51065;48.884;12.598;2022-09-09T03:10:27;11.48;;;4.68;;
64653;SDS011;51065;48.884;12.598;2022-09-09T03:12:52;10.60;;;5.00;;
64653;SDS011;51065;48.884;12.598;2022-09-09T03:15:18;12.07;;;5.18;;
64653;SDS011;51065;48.884;12.598;2022-09-09T03:17:45;13.68;;;5.03;;
64653;SDS011;51065;48.884;12.598;2022-09-09T03:20:12;14.02;;;5.47;;
64653;SDS011;51065;48.884;12.598;2022-09-09T03:22:37;12.85;;;5.38;;
64653;SDS011;51065;48.884;12.598;2022-09-09T03:25:03;12.77;;;5.32;;
64653;SDS011;51065;48.884;12.598;2022-09-09T03:27:29;12.23;;;5.32;;
64653;SDS011;51065;48.884;12.598;2022-09-09T03:29:55;16.42;;;5.65;;
64653;SDS011;51065;48.884;12.598;2022-09-09T03:32:21;15.13;;;6.15;;
64653;SDS011;51065;48.884;12.598;2022-09-09T03:34:47;10.32;;;4.60;;
64653;SDS011;51065;48.884;12.598;2022-09-09T03:37:15;11.43;;;4.60;;
64653;SDS011;51065;48.884;12.598;2022-09-09T03:39:42;13.40;;;5.22;;
64653;SDS011;51065;48.884;12.598;2022-09-09T03:42:08;13.63;;;5.38;;
64653;SDS011;51065;48.884;12.598;2022-09-09T03:44:34;12.20;;;4.85;;
64653;SDS011;51065;48.884;12.598;2022-09-09T03:46:59;10.85;;;4.63;;
64653;SDS011;51065;48.884;12.598;2022-09-09T03:49:25;11.75;;;4.47;;
64653;SDS011;51065;48.884;12.598;2022-09-09T03:51:53;11.63;;;4.65;;
64653;SDS011;51065;48.884;12.598;2022-09-09T03:54:21;11.85;;;5.53;;
64653;SDS011;51065;48.884;12.598;2022-09-09T03:56:47;13.02;;;5.13;;
64653;SDS011;51065;48.884;12.598;2022-09-09T03:59:13;11.27;;;4.28;;
64653;SDS011;51065;48.884;12.598;2022-09-09T04:01:39;11.65;;;4.70;;
64653;SDS011;51065;48.884;12.598;2022-09-09T04:04:05;11.75;;;4.63;;
64653;SDS011;51065;48.884;12.598;2022-09-09T04:06:30;12.38;;;5.15;;
64653;SDS011;51065;48.884;12.598;2022-09-09T04:08:56;12.68;;;5.32;;
64653;SDS011;51065;48.884;12.598;2022-09-09T04:11:21;11.57;;;4.35;;
64653;SDS011;51065;48.884;12.598;2022-09-09T04:13:47;9.23;;;4.30;;
64653;SDS011;51065;48.884;12.598;2022-09-09T04:16:14;9.60;;;4.03;;
64653;SDS011;51065;48.884;12.598;2022-09-09T04:18:40;11.60;;;4.97;;
64653;SDS011;51065;48.884;12.598;2022-09-09T04:21:06;10.15;;;4.95;;
64653;SDS011;51065;48.884;12.598;2022-09-09T04:23:33;12.55;;;4.90;;
64653;SDS011;51065;48.884;12.598;2022-09-09T04:26:00;12.50;;;4.85;;
64653;SDS011;51065;48.884;12.598;2022-09-09T04:28:27;11.50;;;4.93;;
64653;SDS011;51065;48.884;12.598;2022-09-09T04:30:55;10.75;;;4.20;;
64653;SDS011;51065;48.884;12.598;2022-09-09T04:33:22;10.15;;;4.28;;
64653;SDS011;51065;48.884;12.598;2022-09-09T04:35:51;9.38;;;4.40;;
64653;SDS011;51065;48.884;12.598;2022-09-09T04:38:18;10.00;;;4.90;;
64653;SDS011;51065;48.884;12.598;2022-09-09T04:40:48;11.10;;;4.78;;
64653;SDS011;51065;48.884;12.598;2022-09-09T04:43:16;12.27;;;5.05;;
64653;SDS011;51065;48.884;12.598;2022-09-09T04:45:43;12.82;;;4.88;;
64653;SDS011;51065;48.884;12.598;2022-09-09T04:48:11;12.70;;;4.97;;
64653;SDS011;51065;48.884;12.598;2022-09-09T04:50:37;12.95;;;5.10;;
64653;SDS011;51065;48.884;12.598;2022-09-09T04:53:02;13.90;;;5.13;;
64653;SDS011;51065;48.884;12.598;2022-09-09T04:55:29;10.73;;;4.70;;
64653;SDS011;51065;48.884;12.598;2022-09-09T04:57:56;13.68;;;5.45;;
64653;SDS011;51065;48.884;12.598;2022-09-09T05:00:22;11.70;;;4.90;;
64653;SDS011;51065;48.884;12.598;2022-09-09T05:02:48;14.63;;;5.60;;
64653;SDS011;51065;48.884;12.598;2022-09-09T05:05:14;10.90;;;4.47;;
64653;SDS011;51065;48.884;12.598;2022-09-09T05:07:40;13.82;;;4.93;;
64653;SDS011;51065;48.884;12.598;2022-09-09T05:10:06;15.05;;;5.80;;
64653;SDS011;51065;48.884;12.598;2022-09-09T05:12:32;12.23;;;5.63;;
64653;SDS011;51065;48.884;12.598;2022-09-09T05:14:58;12.25;;;4.82;;
64653;SDS011;51065;48.884;12.598;2022-09-09T05:17:23;12.43;;;5.40;;
64653;SDS011;51065;48.884;12.598;2022-09-09T05:19:49;12.00;;;5.03;;
64653;SDS011;51065;48.884;12.598;2022-09-09T05:22:18;13.32;;;5.35;;
64653;SDS011;51065;48.884;12.598;2022-09-09T05:24:45;13.32;;;5.20;;
64653;SDS011;51065;48.884;12.598;2022-09-09T05:27:11;12.10;;;5.05;;
64653;SDS011;51065;48.884;12.598;2022-09-09T05:29:37;12.00;;;5.50;;
64653;SDS011;51065;48.884;12.598;2022-09-09T05:32:03;16.33;;;5.72;;
64653;SDS011;51065;48.884;12.598;2022-09-09T05:34:29;12.43;;;5.13;;
64653;SDS011;51065;48.884;12.598;2022-09-09T05:36:55;13.30;;;5.47;;
64653;SDS011;51065;48.884;12.598;2022-09-09T05:39:20;11.32;;;5.50;;
64653;SDS011;51065;48.884;12.598;2022-09-09T05:41:46;10.68;;;4.93;;
64653;SDS011;51065;48.884;12.598;2022-09-09T05:44:11;11.20;;;5.15;;
64653;SDS011;51065;48.884;12.598;2022-09-09T05:46:38;9.85;;;4.40;;
64653;SDS011;51065;48.884;12.598;2022-09-09T05:49:04;16.98;;;5.57;;
64653;SDS011;51065;48.884;12.598;2022-09-09T05:51:30;14.23;;;5.30;;
64653;SDS011;51065;48.884;12.598;2022-09-09T05:53:56;9.88;;;4.35;;
64653;SDS011;51065;48.884;12.598;2022-09-09T05:56:26;10.57;;;4.60;;
64653;SDS011;51065;48.884;12.598;2022-09-09T05:58:52;10.38;;;4.80;;
64653;SDS011;51065;48.884;12.598;2022-09-09T06:03:49;14.65;;;5.95;;
64653;SDS011;51065;48.884;12.598;2022-09-09T06:06:19;13.02;;;5.72;;
64653;SDS011;51065;48.884;12.598;2022-09-09T06:08:47;13.48;;;5.53;;
64653;SDS011;51065;48.884;12.598;2022-09-09T06:11:14;15.90;;;5.78;;
64653;SDS011;51065;48.884;12.598;2022-09-09T06:13:42;13.88;;;5.90;;
64653;SDS011;51065;48.884;12.598;2022-09-09T06:16:09;15.25;;;6.30;;
64653;SDS011;51065;48.884;12.598;2022-09-09T06:18:40;14.15;;;5.38;;
64653;SDS011;51065;48.884;12.598;2022-09-09T06:21:08;13.13;;;5.50;;
64653;SDS011;51065;48.884;12.598;2022-09-09T06:23:39;13.40;;;5.82;;
64653;SDS011;51065;48.884;12.598;2022-09-09T06:26:13;15.40;;;5.82;;
64653;SDS011;51065;48.884;12.598;2022-09-09T06:28:44;15.30;;;5.72;;
64653;SDS011;51065;48.884;12.598;2022-09-09T06:31:15;10.38;;;4.78;;
64653;SDS011;51065;48.884;12.598;2022-09-09T06:33:42;12.63;;;5.10;;
64653;SDS011;51065;48.884;12.598;2022-09-09T06:36:27;11.38;;;4.43;;
64653;SDS011;51065;48.884;12.598;2022-09-09T06:38:54;10.68;;;4.90;;
64653;SDS011;51065;48.884;12.598;2022-09-09T06:41:20;11.50;;;4.57;;
64653;SDS011;51065;48.884;12.598;2022-09-09T06:43:48;9.32;;;4.35;;
64653;SDS011;51065;48.884;12.598;2022-09-09T06:46:17;8.73;;;4.20;;
64653;SDS011;51065;48.884;12.598;2022-09-09T06:48:44;10.55;;;4.20;;
64653;SDS011;51065;48.884;12.598;2022-09-09T06:51:14;9.98;;;4.35;;
64653;SDS011;51065;48.884;12.598;2022-09-09T06:53:46;9.70;;;4.22;;
64653;SDS011;51065;48.884;12.598;2022-09-09T06:56:18;9.15;;;4.05;;
64653;SDS011;51065;48.884;12.598;2022-09-09T06:58:48;10.45;;;4.00;;
64653;SDS011;51065;48.884;12.598;2022-09-09T07:01:18;10.20;;;4.28;;
64653;SDS011;51065;48.884;12.598;2022-09-09T07:03:46;10.18;;;4.35;;
64653;SDS011;51065;48.884;12.598;2022-09-09T07:06:17;10.27;;;4.60;;
64653;SDS011;51065;48.884;12.598;2022-09-09T07:08:49;9.82;;;4.13;;
64653;SDS011;51065;48.884;12.598;2022-09-09T07:11:15;8.90;;;3.90;;
64653;SDS011;51065;48.884;12.598;2022-09-09T07:13:41;9.15;;;4.20;;
64653;SDS011;51065;48.884;12.598;2022-09-09T07:16:08;9.40;;;4.00;;
64653;SDS011;51065;48.884;12.598;2022-09-09T07:18:35;11.77;;;4.80;;
64653;SDS011;51065;48.884;12.598;2022-09-09T07:21:02;11.52;;;4.20;;
64653;SDS011;51065;48.884;12.598;2022-09-09T07:23:29;11.18;;;4.63;;
64653;SDS011;51065;48.884;12.598;2022-09-09T07:25:55;11.60;;;4.70;;
64653;SDS011;51065;48.884;12.598;2022-09-09T07:28:23;11.20;;;4.93;;
64653;SDS011;51065;48.884;12.598;2022-09-09T07:31:12;11.27;;;4.65;;
64653;SDS011;51065;48.884;12.598;2022-09-09T07:33:42;11.48;;;4.25;;
64653;SDS011;51065;48.884;12.598;2022-09-09T07:36:10;13.02;;;5.43;;
64653;SDS011;51065;48.884;12.598;2022-09-09T07:38:50;10.73;;;4.20;;
64653;SDS011;51065;48.884;12.598;2022-09-09T07:41:25;12.10;;;4.78;;
64653;SDS011;51065;48.884;12.598;2022-09-09T07:43:53;9.70;;;4.22;;
64653;SDS011;51065;48.884;12.598;2022-09-09T07:46:20;9.90;;;4.30;;
64653;SDS011;51065;48.884;12.598;2022-09-09T07:48:49;9.00;;;3.67;;
64653;SDS011;51065;48.884;12.598;2022-09-09T07:51:17;9.75;;;4.30;;
64653;SDS011;51065;48.884;12.598;2022-09-09T07:53:48;11.48;;;4.30;;
64653;SDS011;51065;48.884;12.598;2022-09-09T07:56:17;11.35;;;4.07;;
64653;SDS011;51065;48.884;12.598;2022-09-09T07:58:48;9.48;;;3.90;;
64653;SDS011;51065;48.884;12.598;2022-09-09T08:01:15;9.55;;;3.88;;
64653;SDS011;51065;48.884;12.598;2022-09-09T08:03:43;8.57;;;3.80;;
64653;SDS011;51065;48.884;12.598;2022-09-09T08:06:12;9.60;;;3.92;;
64653;SDS011;51065;48.884;12.598;2022-09-09T08:08:39;11.77;;;4.13;;
64653;SDS011;51065;48.884;12.598;2022-09-09T08:11:10;8.23;;;3.70;;
64653;SDS011;51065;48.884;12.598;2022-09-09T08:13:37;8.88;;;3.95;;
64653;SDS011;51065;48.884;12.598;2022-09-09T08:16:04;10.45;;;4.32;;
64653;SDS011;51065;48.884;12.598;2022-09-09T08:18:34;8.00;;;3.40;;
64653;SDS011;51065;48.884;12.598;2022-09-09T08:23:44;9.48;;;3.60;;
64653;SDS011;51065;48.884;12.598;2022-09-09T08:26:27;8.27;;;3.33;;
64653;SDS011;51065;48.884;12.598;2022-09-09T08:28:57;9.20;;;3.63;;
64653;SDS011;51065;48.884;12.598;2022-09-09T08:31:34;10.65;;;3.70;;
64653;SDS011;51065;48.884;12.598;2022-09-09T08:34:05;9.82;;;4.28;;
64653;SDS011;51065;48.884;12.598;2022-09-09T08:36:32;7.32;;;3.72;;
64653;SDS011;51065;48.884;12.598;2022-09-09T08:44:27;10.27;;;3.63;;
64653;SDS011;51065;48.884;12.598;2022-09-09T08:52:38;6.70;;;3.30;;
64653;SDS011;51065;48.884;12.598;2022-09-09T08:55:31;9.48;;;3.75;;
64653;SDS011;51065;48.884;12.598;2022-09-09T08:58:47;9.13;;;3.80;;
64653;SDS011;51065;48.884;12.598;2022-09-09T09:09:02;9.98;;;4.00;;
64653;SDS011;51065;48.884;12.598;2022-09-09T09:19:29;13.93;;;4.57;;
64653;SDS011;51065;48.884;12.598;2022-09-09T09:22:10;9.10;;;4.05;;
64653;SDS011;51065;48.884;12.598;2022-09-09T09:24:48;8.45;;;3.92;;
64653;SDS011;51065;48.884;12.598;2022-09-09T09:27:18;11.23;;;4.40;;
64653;SDS011;51065;48.884;12.598;2022-09-09T09:29:53;11.23;;;5.03;;
64653;SDS011;51065;48.884;12.598;2022-09-09T09:32:21;12.05;;;4.65;;
64653;SDS011;51065;48.884;12.598;2022-09-09T09:34:54;11.32;;;4.70;;
64653;SDS011;51065;48.884;12.598;2022-09-09T09:37:26;10.07;;;4.85;;
64653;SDS011;51065;48.884;12.598;2022-09-09T09:39:55;11.85;;;5.10;;
64653;SDS011;51065;48.884;12.598;2022-09-09T09:42:20;10.43;;;5.35;;
64653;SDS011;51065;48.884;12.598;2022-09-09T09:44:47;9.65;;;4.47;;
64653;SDS011;51065;48.884;12.598;2022-09-09T09:47:14;12.30;;;5.72;;
64653;SDS011;51065;48.884;12.598;2022-09-09T09:49:53;12.65;;;5.40;;
64653;SDS011;51065;48.884;12.598;2022-09-09T09:52:30;11.60;;;5.20;;
64653;SDS011;51065;48.884;12.598;2022-09-09T09:54:59;12.55;;;5.22;;
64653;SDS011;51065;48.884;12.598;2022-09-09T09:57:29;11.40;;;4.67;;
64653;SDS011;51065;48.884;12.598;2022-09-09T10:00:13;12.27;;;5.15;;
64653;SDS011;51065;48.884;12.598;2022-09-09T10:02:42;9.80;;;4.68;;
64653;SDS011;51065;48.884;12.598;2022-09-09T10:05:45;11.40;;;4.80;;
64653;SDS011;51065;48.884;12.598;2022-09-09T10:08:05;11.48;;;4.72;;
64653;SDS011;51065;48.884;12.598;2022-09-09T10:10:36;9.00;;;4.55;;
64653;SDS011;51065;48.884;12.598;2022-09-09T10:13:15;10.63;;;4.43;;
64653;SDS011;51065;48.884;12.598;2022-09-09T10:16:08;14.77;;;5.00;;
64653;SDS011;51065;48.884;12.598;2022-09-09T10:29:44;13.13;;;4.78;;
64653;SDS011;51065;48.884;12.598;2022-09-09T10:32:56;8.60;;;3.97;;
64653;SDS011;51065;48.884;12.598;2022-09-09T10:35:29;9.75;;;4.40;;
64653;SDS011;51065;48.884;12.598;2022-09-09T10:38:15;10.27;;;4.03;;
64653;SDS011;51065;48.884;12.598;2022-09-09T10:54:23;12.18;;;4.20;;
64653;SDS011;51065;48.884;12.598;2022-09-09T10:57:11;8.90;;;4.07;;
64653;SDS011;51065;48.884;12.598;2022-09-09T10:59:51;11.38;;;4.43;;
64653;SDS011;51065;48.884;12.598;2022-09-09T11:02:29;13.57;;;4.53;;
64653;SDS011;51065;48.884;12.598;2022-09-09T11:07:39;13.05;;;5.45;;
64653;SDS011;51065;48.884;12.598;2022-09-09T11:10:18;11.93;;;4.95;;
64653;SDS011;51065;48.884;12.598;2022-09-09T11:12:57;10.48;;;4.85;;
64653;SDS011;51065;48.884;12.598;2022-09-09T11:16:04;12.07;;;5.15;;
64653;SDS011;51065;48.884;12.598;2022-09-09T11:18:25;11.25;;;5.32;;
64653;SDS011;51065;48.884;12.598;2022-09-09T11:20:56;12.60;;;5.68;;
64653;SDS011;51065;48.884;12.598;2022-09-09T11:23:59;10.90;;;4.50;;
64653;SDS011;51065;48.884;12.598;2022-09-09T11:26:33;11.23;;;4.70;;
64653;SDS011;51065;48.884;12.598;2022-09-09T11:34:44;8.32;;;4.38;;
64653;SDS011;51065;48.884;12.598;2022-09-09T11:37:32;12.02;;;4.90;;
64653;SDS011;51065;48.884;12.598;2022-09-09T11:40:22;9.30;;;4.28;;
64653;SDS011;51065;48.884;12.598;2022-09-09T11:42:59;11.07;;;4.38;;
64653;SDS011;51065;48.884;12.598;2022-09-09T11:45:50;8.98;;;4.00;;
64653;SDS011;51065;48.884;12.598;2022-09-09T11:48:22;9.73;;;3.85;;
64653;SDS011;51065;48.884;12.598;2022-09-09T11:50:58;6.85;;;3.58;;
64653;SDS011;51065;48.884;12.598;2022-09-09T11:53:32;8.90;;;3.55;;
64653;SDS011;51065;48.884;12.598;2022-09-09T11:56:03;7.63;;;3.50;;
64653;SDS011;51065;48.884;12.598;2022-09-09T11:58:34;8.93;;;3.42;;
64653;SDS011;51065;48.884;12.598;2022-09-09T12:01:12;8.07;;;3.05;;
64653;SDS011;51065;48.884;12.598;2022-09-09T12:03:55;6.57;;;3.10;;
64653;SDS011;51065;48.884;12.598;2022-09-09T12:06:49;6.30;;;2.75;;
64653;SDS011;51065;48.884;12.598;2022-09-09T12:10:04;5.40;;;2.33;;
64653;SDS011;51065;48.884;12.598;2022-09-09T12:19:39;5.80;;;2.60;;
64653;SDS011;51065;48.884;12.598;2022-09-09T12:22:12;3.88;;;2.00;;
64653;SDS011;51065;48.884;12.598;2022-09-09T12:24:58;3.28;;;1.88;;
64653;SDS011;51065;48.884;12.598;2022-09-09T12:33:39;5.97;;;1.67;;
64653;SDS011;51065;48.884;12.598;2022-09-09T12:36:12;3.60;;;1.60;;
64653;SDS011;51065;48.884;12.598;2022-09-09T12:38:44;2.28;;;1.70;;
64653;SDS011;51065;48.884;12.598;2022-09-09T12:43:49;3.00;;;1.73;;
64653;SDS011;51065;48.884;12.598;2022-09-09T12:46:49;5.65;;;2.00;;
64653;SDS011;51065;48.884;12.598;2022-09-09T12:51:59;5.10;;;1.90;;
64653;SDS011;51065;48.884;12.598;2022-09-09T12:54:28;5.40;;;1.73;;
64653;SDS011;51065;48.884;12.598;2022-09-09T12:56:53;4.93;;;2.20;;
64653;SDS011;51065;48.884;12.598;2022-09-09T12:59:23;6.22;;;1.60;;
64653;SDS011;51065;48.884;12.598;2022-09-09T13:01:57;2.70;;;1.05;;
64653;SDS011;51065;48.884;12.598;2022-09-09T13:04:23;2.47;;;1.10;;
64653;SDS011;51065;48.884;12.598;2022-09-09T13:06:49;4.15;;;1.30;;
64653;SDS011;51065;48.884;12.598;2022-09-09T13:09:14;4.65;;;1.60;;
64653;SDS011;51065;48.884;12.598;2022-09-09T13:11:43;2.35;;;0.98;;
64653;SDS011;51065;48.884;12.598;2022-09-09T13:14:18;3.53;;;1.13;;
64653;SDS011;51065;48.884;12.598;2022-09-09T13:16:54;2.80;;;1.20;;
64653;SDS011;51065;48.884;12.598;2022-09-09T13:19:22;3.60;;;1.33;;
64653;SDS011;51065;48.884;12.598;2022-09-09T13:21:50;2.13;;;1.10;;
64653;SDS011;51065;48.884;12.598;2022-09-09T13:24:24;2.58;;;1.20;;
64653;SDS011;51065;48.884;12.598;2022-09-09T13:26:58;3.40;;;1.10;;
64653;SDS011;51065;48.884;12.598;2022-09-09T13:29:29;6.75;;;1.27;;
64653;SDS011;51065;48.884;12.598;2022-09-09T13:34:50;3.38;;;1.38;;
64653;SDS011;51065;48.884;12.598;2022-09-09T13:37:21;4.63;;;1.45;;
64653;SDS011;51065;48.884;12.598;2022-09-09T13:40:02;3.58;;;1.40;;
64653;SDS011;51065;48.884;12.598;2022-09-09T13:42:31;2.50;;;1.17;;
64653;SDS011;51065;48.884;12.598;2022-09-09T13:45:03;3.25;;;1.30;;
64653;SDS011;51065;48.884;12.598;2022-09-09T13:47:34;2.45;;;0.98;;
64653;SDS011;51065;48.884;12.598;2022-09-09T13:52:56;2.85;;;0.80;;
64653;SDS011;51065;48.884;12.598;2022-09-09T13:55:24;4.85;;;1.13;;
64653;SDS011;51065;48.884;12.598;2022-09-09T13:57:55;1.83;;;0.60;;
64653;SDS011;51065;48.884;12.598;2022-09-09T14:00:22;8.32;;;1.00;;
64653;SDS011;51065;48.884;12.598;2022-09-09T14:02:51;2.17;;;0.90;;
64653;SDS011;51065;48.884;12.598;2022-09-09T14:05:19;1.20;;;0.75;;
64653;SDS011;51065;48.884;12.598;2022-09-09T14:07:47;3.47;;;0.70;;
64653;SDS011;51065;48.884;12.598;2022-09-09T14:10:13;5.57;;;0.75;;
64653;SDS011;51065;48.884;12.598;2022-09-09T14:12:39;1.90;;;0.80;;
64653;SDS011;51065;48.884;12.598;2022-09-09T14:15:06;1.00;;;0.52;;
64653;SDS011;51065;48.884;12.598;2022-09-09T14:17:35;2.83;;;0.80;;
64653;SDS011;51065;48.884;12.598;2022-09-09T14:20:01;2.45;;;0.77;;
64653;SDS011;51065;48.884;12.598;2022-09-09T14:22:34;1.63;;;0.70;;
64653;SDS011;51065;48.884;12.598;2022-09-09T14:25:00;1.88;;;0.80;;
64653;SDS011;51065;48.884;12.598;2022-09-09T14:27:26;2.10;;;0.65;;
64653;SDS011;51065;48.884;12.598;2022-09-09T14:29:52;1.95;;;0.90;;
64653;SDS011;51065;48.884;12.598;2022-09-09T14:32:18;2.78;;;1.00;;
64653;SDS011;51065;48.884;12.598;2022-09-09T14:34:44;3.58;;;1.20;;
64653;SDS011;51065;48.884;12.598;2022-09-09T14:37:10;1.58;;;0.77;;
64653;SDS011;51065;48.884;12.598;2022-09-09T14:39:35;0.90;;;0.75;;
64653;SDS011;51065;48.884;12.598;2022-09-09T14:42:01;2.40;;;1.10;;
64653;SDS011;51065;48.884;12.598;2022-09-09T14:44:27;3.90;;;0.85;;
64653;SDS011;51065;48.884;12.598;2022-09-09T14:46:53;1.60;;;0.90;;
64653;SDS011;51065;48.884;12.598;2022-09-09T14:49:19;3.08;;;1.08;;
64653;SDS011;51065;48.884;12.598;2022-09-09T14:51:45;3.58;;;1.20;;
64653;SDS011;51065;48.884;12.598;2022-09-09T14:54:11;5.35;;;1.50;;
64653;SDS011;51065;48.884;12.598;2022-09-09T14:56:37;3.08;;;1.25;;
64653;SDS011;51065;48.884;12.598;2022-09-09T14:59:03;4.97;;;1.40;;
64653;SDS011;51065;48.884;12.598;2022-09-09T15:01:29;2.67;;;1.23;;
64653;SDS011;51065;48.884;12.598;2022-09-09T15:03:57;2.05;;;1.17;;
64653;SDS011;51065;48.884;12.598;2022-09-09T15:06:25;4.13;;;1.45;;
64653;SDS011;51065;48.884;12.598;2022-09-09T15:08:52;3.00;;;1.10;;
64653;SDS011;51065;48.884;12.598;2022-09-09T15:11:18;3.28;;;0.98;;
64653;SDS011;51065;48.884;12.598;2022-09-09T15:13:45;2.92;;;1.13;;
64653;SDS011;51065;48.884;12.598;2022-09-09T15:16:16;2.85;;;0.90;;
64653;SDS011;51065;48.884;12.598;2022-09-09T15:18:43;1.88;;;0.90;;
64653;SDS011;51065;48.884;12.598;2022-09-09T15:21:13;2.17;;;1.30;;
64653;SDS011;51065;48.884;12.598;2022-09-09T15:23:40;2.35;;;1.00;;
64653;SDS011;51065;48.884;12.598;2022-09-09T15:26:06;4.00;;;1.30;;
64653;SDS011;51065;48.884;12.598;2022-09-09T15:28:33;3.38;;;1.10;;
64653;SDS011;51065;48.884;12.598;2022-09-09T15:31:07;3.15;;;1.27;;
64653;SDS011;51065;48.884;12.598;2022-09-09T15:33:39;2.85;;;1.15;;
64653;SDS011;51065;48.884;12.598;2022-09-09T15:36:15;2.28;;;1.10;;
64653;SDS011;51065;48.884;12.598;2022-09-09T15:38:42;2.63;;;0.82;;
64653;SDS011;51065;48.884;12.598;2022-09-09T15:41:08;3.17;;;1.65;;
64653;SDS011;51065;48.884;12.598;2022-09-09T15:43:34;2.70;;;1.30;;
64653;SDS011;51065;48.884;12.598;2022-09-09T15:46:05;1.58;;;1.10;;
64653;SDS011;51065;48.884;12.598;2022-09-09T15:48:42;2.13;;;1.23;;
64653;SDS011;51065;48.884;12.598;2022-09-09T15:51:09;2.47;;;1.25;;
64653;SDS011;51065;48.884;12.598;2022-09-09T15:53:35;3.42;;;1.10;;
64653;SDS011;51065;48.884;12.598;2022-09-09T15:56:07;2.42;;;1.08;;
64653;SDS011;51065;48.884;12.598;2022-09-09T15:58:34;6.45;;;1.10;;
64653;SDS011;51065;48.884;12.598;2022-09-09T16:01:04;2.15;;;0.82;;
64653;SDS011;51065;48.884;12.598;2022-09-09T16:03:35;2.30;;;0.77;;
64653;SDS011;51065;48.884;12.598;2022-09-09T16:06:02;3.75;;;1.10;;
64653;SDS011;51065;48.884;12.598;2022-09-09T16:08:38;1.85;;;0.73;;
64653;SDS011;51065;48.884;12.598;2022-09-09T16:11:07;2.85;;;1.23;;
64653;SDS011;51065;48.884;12.598;2022-09-09T16:13:37;3.80;;;1.00;;
64653;SDS011;51065;48.884;12.598;2022-09-09T16:16:04;1.45;;;0.70;;
64653;SDS011;51065;48.884;12.598;2022-09-09T16:18:36;2.92;;;1.00;;
64653;SDS011;51065;48.884;12.598;2022-09-09T16:21:07;2.50;;;0.80;;
64653;SDS011;51065;48.884;12.598;2022-09-09T16:23:38;3.17;;;0.93;;
64653;SDS011;51065;48.884;12.598;2022-09-09T16:26:04;9.57;;;1.20;;
64653;SDS011;51065;48.884;12.598;2022-09-09T16:28:30;5.13;;;1.30;;
64653;SDS011;51065;48.884;12.598;2022-09-09T16:30:56;2.25;;;0.95;;
64653;SDS011;51065;48.884;12.598;2022-09-09T16:33:22;3.42;;;1.02;;
64653;SDS011;51065;48.884;12.598;2022-09-09T16:35:48;3.17;;;1.30;;
64653;SDS011;51065;48.884;12.598;2022-09-09T16:38:14;3.20;;;1.20;;
64653;SDS011;51065;48.884;12.598;2022-09-09T16:40:40;3.60;;;1.00;;
64653;SDS011;51065;48.884;12.598;2022-09-09T16:43:06;2.90;;;0.90;;
64653;SDS011;51065;48.884;12.598;2022-09-09T16:45:34;2.55;;;0.90;;
64653;SDS011;51065;48.884;12.598;2022-09-09T16:48:05;2.10;;;0.82;;
64653;SDS011;51065;48.884;12.598;2022-09-09T16:50:31;2.80;;;0.90;;
64653;SDS011;51065;48.884;12.598;2022-09-09T16:52:57;3.45;;;1.15;;
64653;SDS011;51065;48.884;12.598;2022-09-09T16:55:22;2.60;;;1.20;;
64653;SDS011;51065;48.884;12.598;2022-09-09T16:57:49;4.95;;;1.17;;
64653;SDS011;51065;48.884;12.598;2022-09-09T17:00:14;5.13;;;1.60;;